<?xml version="1.0" encoding="UTF-8" standalone="no" ?>
<gpx xmlns="http://www.topografix.com/GPX/1/1" xmlns:xsi="http://www.w3.org/2001/XMLSchema-instance" xsi:schemaLocation="http://www.topografix.com/GPX/1/1 http://www.topografix.com/GPX/1/1/gpx.xsd" version="1.1" creator="VisuGPX - https://www.visugpx.com">
  <metadata>
    <name>Davrinche20101</name>
    <desc><![CDATA[la partie 1 des repérages]]></desc>
  </metadata>
  <trk>
    <name><![CDATA[--Saint-Genès-Champanelle-- OR-5370364:ser-fr04-b2]]></name>
    <trkseg>
      <trkpt lat="45.70151" lon="2.96726">
        <ele>986</ele>
        <time>2015-10-17T14:43:56Z</time>
      </trkpt>
      <trkpt lat="45.70132" lon="2.96642">
        <ele>987</ele>
        <time>2015-10-17T14:45:56Z</time>
      </trkpt>
      <trkpt lat="45.70126" lon="2.9659">
        <ele>990</ele>
        <time>2015-10-17T14:47:56Z</time>
      </trkpt>
      <trkpt lat="45.701" lon="2.96521">
        <ele>995</ele>
        <time>2015-10-17T14:49:56Z</time>
      </trkpt>
      <trkpt lat="45.7008" lon="2.96521">
        <ele>994</ele>
        <time>2015-10-17T14:51:56Z</time>
      </trkpt>
      <trkpt lat="45.70076" lon="2.96414">
        <ele>1002</ele>
        <time>2015-10-17T14:53:56Z</time>
      </trkpt>
      <trkpt lat="45.70083" lon="2.96326">
        <ele>1006</ele>
        <time>2015-10-17T14:55:56Z</time>
      </trkpt>
      <trkpt lat="45.70113" lon="2.96197">
        <ele>1001</ele>
        <time>2015-10-17T14:57:56Z</time>
      </trkpt>
      <trkpt lat="45.70155" lon="2.96116">
        <ele>999</ele>
        <time>2015-10-17T14:59:56Z</time>
      </trkpt>
      <trkpt lat="45.702" lon="2.96042">
        <ele>1001</ele>
        <time>2015-10-17T15:01:56Z</time>
      </trkpt>
      <trkpt lat="45.70231" lon="2.96092">
        <ele>1013</ele>
        <time>2015-10-17T15:03:56Z</time>
      </trkpt>
      <trkpt lat="45.70276" lon="2.96159">
        <ele>1043</ele>
        <time>2015-10-17T15:05:56Z</time>
      </trkpt>
      <trkpt lat="45.7032" lon="2.96152">
        <ele>1059</ele>
        <time>2015-10-17T15:07:56Z</time>
      </trkpt>
      <trkpt lat="45.70366" lon="2.96161">
        <ele>1070</ele>
        <time>2015-10-17T15:09:56Z</time>
      </trkpt>
      <trkpt lat="45.70368" lon="2.96223">
        <ele>1087</ele>
        <time>2015-10-17T15:11:56Z</time>
      </trkpt>
      <trkpt lat="45.70401" lon="2.96252">
        <ele>1107</ele>
        <time>2015-10-17T15:13:56Z</time>
      </trkpt>
      <trkpt lat="45.70453" lon="2.96319">
        <ele>1128</ele>
        <time>2015-10-17T15:15:56Z</time>
      </trkpt>
      <trkpt lat="45.70506" lon="2.96335">
        <ele>1145</ele>
        <time>2015-10-17T15:17:56Z</time>
      </trkpt>
      <trkpt lat="45.70578" lon="2.96309">
        <ele>1142</ele>
        <time>2015-10-17T15:19:56Z</time>
      </trkpt>
      <trkpt lat="45.70618" lon="2.96276">
        <ele>1135</ele>
        <time>2015-10-17T15:21:56Z</time>
      </trkpt>
      <trkpt lat="45.70649" lon="2.9623">
        <ele>1133</ele>
        <time>2015-10-17T15:23:56Z</time>
      </trkpt>
      <trkpt lat="45.70671" lon="2.9619">
        <ele>1130</ele>
        <time>2015-10-17T15:25:56Z</time>
      </trkpt>
      <trkpt lat="45.70671" lon="2.9613">
        <ele>1126</ele>
        <time>2015-10-17T15:27:56Z</time>
      </trkpt>
      <trkpt lat="45.70664" lon="2.96102">
        <ele>1123</ele>
        <time>2015-10-17T15:29:56Z</time>
      </trkpt>
      <trkpt lat="45.70701" lon="2.96032">
        <ele>1112</ele>
        <time>2015-10-17T15:31:56Z</time>
      </trkpt>
      <trkpt lat="45.70757" lon="2.96028">
        <ele>1101</ele>
        <time>2015-10-17T15:33:56Z</time>
      </trkpt>
      <trkpt lat="45.70731" lon="2.95945">
        <ele>1100</ele>
        <time>2015-10-17T15:35:56Z</time>
      </trkpt>
      <trkpt lat="45.70788" lon="2.95955">
        <ele>1101</ele>
        <time>2015-10-17T15:37:56Z</time>
      </trkpt>
      <trkpt lat="45.70781" lon="2.95933">
        <ele>1101</ele>
        <time>2015-10-17T15:39:56Z</time>
      </trkpt>
      <trkpt lat="45.70844" lon="2.95952">
        <ele>1111</ele>
        <time>2015-10-17T15:41:56Z</time>
      </trkpt>
      <trkpt lat="45.70944" lon="2.95979">
        <ele>1130</ele>
        <time>2015-10-17T15:43:56Z</time>
      </trkpt>
      <trkpt lat="45.71004" lon="2.95949">
        <ele>1146</ele>
        <time>2015-10-17T15:45:56Z</time>
      </trkpt>
      <trkpt lat="45.7105" lon="2.95918">
        <ele>1152</ele>
        <time>2015-10-17T15:47:56Z</time>
      </trkpt>
      <trkpt lat="45.71104" lon="2.95849">
        <ele>1160</ele>
        <time>2015-10-17T15:49:56Z</time>
      </trkpt>
      <trkpt lat="45.711" lon="2.95828">
        <ele>1165</ele>
        <time>2015-10-17T15:51:56Z</time>
      </trkpt>
      <trkpt lat="45.7112" lon="2.9578">
        <ele>1160</ele>
        <time>2015-10-17T15:53:56Z</time>
      </trkpt>
      <trkpt lat="45.71139" lon="2.95728">
        <ele>1160</ele>
        <time>2015-10-17T15:55:56Z</time>
      </trkpt>
      <trkpt lat="45.71167" lon="2.95623">
        <ele>1163</ele>
        <time>2015-10-17T15:57:56Z</time>
      </trkpt>
      <trkpt lat="45.71172" lon="2.95558">
        <ele>1158</ele>
        <time>2015-10-17T15:59:56Z</time>
      </trkpt>
      <trkpt lat="45.71157" lon="2.95494">
        <ele>1147</ele>
        <time>2015-10-17T16:01:56Z</time>
      </trkpt>
      <trkpt lat="45.71124" lon="2.95441">
        <ele>1134</ele>
        <time>2015-10-17T16:03:56Z</time>
      </trkpt>
      <trkpt lat="45.71089" lon="2.95372">
        <ele>1128</ele>
        <time>2015-10-17T16:05:56Z</time>
      </trkpt>
      <trkpt lat="45.71062" lon="2.95368">
        <ele>1127</ele>
        <time>2015-10-17T16:07:56Z</time>
      </trkpt>
      <trkpt lat="45.70984" lon="2.95313">
        <ele>1124</ele>
        <time>2015-10-17T16:09:56Z</time>
      </trkpt>
      <trkpt lat="45.70942" lon="2.95315">
        <ele>1117</ele>
        <time>2015-10-17T16:11:56Z</time>
      </trkpt>
      <trkpt lat="45.70909" lon="2.95329">
        <ele>1111</ele>
        <time>2015-10-17T16:13:56Z</time>
      </trkpt>
      <trkpt lat="45.70869" lon="2.9532">
        <ele>1099</ele>
        <time>2015-10-17T16:15:56Z</time>
      </trkpt>
      <trkpt lat="45.70814" lon="2.95315">
        <ele>1084</ele>
        <time>2015-10-17T16:17:56Z</time>
      </trkpt>
      <trkpt lat="45.70779" lon="2.9532">
        <ele>1075</ele>
        <time>2015-10-17T16:19:56Z</time>
      </trkpt>
      <trkpt lat="45.70736" lon="2.95329">
        <ele>1064</ele>
        <time>2015-10-17T16:21:56Z</time>
      </trkpt>
      <trkpt lat="45.70716" lon="2.95332">
        <ele>1058</ele>
        <time>2015-10-17T16:23:56Z</time>
      </trkpt>
      <trkpt lat="45.70688" lon="2.9531">
        <ele>1050</ele>
        <time>2015-10-17T16:25:56Z</time>
      </trkpt>
      <trkpt lat="45.70601" lon="2.95294">
        <ele>1032</ele>
        <time>2015-10-17T16:27:56Z</time>
      </trkpt>
      <trkpt lat="45.70564" lon="2.95342">
        <ele>1024</ele>
        <time>2015-10-17T16:29:56Z</time>
      </trkpt>
      <trkpt lat="45.70494" lon="2.95408">
        <ele>1013</ele>
        <time>2015-10-17T16:31:56Z</time>
      </trkpt>
      <trkpt lat="45.70469" lon="2.95444">
        <ele>1010</ele>
        <time>2015-10-17T16:33:56Z</time>
      </trkpt>
      <trkpt lat="45.70464" lon="2.95563">
        <ele>1002</ele>
        <time>2015-10-17T16:35:56Z</time>
      </trkpt>
      <trkpt lat="45.70434" lon="2.95618">
        <ele>999</ele>
        <time>2015-10-17T16:37:56Z</time>
      </trkpt>
      <trkpt lat="45.70402" lon="2.95649">
        <ele>997</ele>
        <time>2015-10-17T16:39:56Z</time>
      </trkpt>
      <trkpt lat="45.70372" lon="2.95709">
        <ele>998</ele>
        <time>2015-10-17T16:41:56Z</time>
      </trkpt>
      <trkpt lat="45.70359" lon="2.95792">
        <ele>1001</ele>
        <time>2015-10-17T16:43:56Z</time>
      </trkpt>
      <trkpt lat="45.70317" lon="2.95857">
        <ele>996</ele>
        <time>2015-10-17T16:45:56Z</time>
      </trkpt>
      <trkpt lat="45.70292" lon="2.95902">
        <ele>995</ele>
        <time>2015-10-17T16:47:56Z</time>
      </trkpt>
      <trkpt lat="45.70259" lon="2.95969">
        <ele>998</ele>
        <time>2015-10-17T16:49:56Z</time>
      </trkpt>
      <trkpt lat="45.70227" lon="2.95973">
        <ele>997</ele>
        <time>2015-10-17T16:51:56Z</time>
      </trkpt>
      <trkpt lat="45.70219" lon="2.95885">
        <ele>993</ele>
        <time>2015-10-17T16:53:56Z</time>
      </trkpt>
      <trkpt lat="45.70194" lon="2.95854">
        <ele>993</ele>
        <time>2015-10-17T16:55:56Z</time>
      </trkpt>
      <trkpt lat="45.70162" lon="2.95773">
        <ele>993</ele>
        <time>2015-10-17T16:57:56Z</time>
      </trkpt>
      <trkpt lat="45.70129" lon="2.95737">
        <ele>994</ele>
        <time>2015-10-17T16:59:56Z</time>
      </trkpt>
      <trkpt lat="45.70077" lon="2.95737">
        <ele>995</ele>
        <time>2015-10-17T17:01:56Z</time>
      </trkpt>
      <trkpt lat="45.70024" lon="2.95728">
        <ele>997</ele>
        <time>2015-10-17T17:03:56Z</time>
      </trkpt>
      <trkpt lat="45.69989" lon="2.9568">
        <ele>1002</ele>
        <time>2015-10-17T17:05:56Z</time>
      </trkpt>
      <trkpt lat="45.69979" lon="2.95606">
        <ele>1005</ele>
        <time>2015-10-17T17:07:56Z</time>
      </trkpt>
      <trkpt lat="45.70009" lon="2.95477">
        <ele>1009</ele>
        <time>2015-10-17T17:09:56Z</time>
      </trkpt>
      <trkpt lat="45.69973" lon="2.95415">
        <ele>1003</ele>
        <time>2015-10-17T17:11:56Z</time>
      </trkpt>
      <trkpt lat="45.69938" lon="2.95394">
        <ele>996</ele>
        <time>2015-10-17T17:13:56Z</time>
      </trkpt>
      <trkpt lat="45.69938" lon="2.95291">
        <ele>994</ele>
        <time>2015-10-17T17:15:56Z</time>
      </trkpt>
      <trkpt lat="45.69911" lon="2.9521">
        <ele>991</ele>
        <time>2015-10-17T17:17:56Z</time>
      </trkpt>
      <trkpt lat="45.69896" lon="2.9511">
        <ele>992</ele>
        <time>2015-10-17T17:19:56Z</time>
      </trkpt>
      <trkpt lat="45.69876" lon="2.95017">
        <ele>993</ele>
        <time>2015-10-17T17:21:56Z</time>
      </trkpt>
      <trkpt lat="45.69829" lon="2.94934">
        <ele>993</ele>
        <time>2015-10-17T17:23:56Z</time>
      </trkpt>
      <trkpt lat="45.69784" lon="2.94829">
        <ele>997</ele>
        <time>2015-10-17T17:25:56Z</time>
      </trkpt>
      <trkpt lat="45.69749" lon="2.94743">
        <ele>998</ele>
        <time>2015-10-17T17:27:56Z</time>
      </trkpt>
      <trkpt lat="45.69723" lon="2.94803">
        <ele>996</ele>
        <time>2015-10-17T17:29:56Z</time>
      </trkpt>
      <trkpt lat="45.69689" lon="2.94861">
        <ele>993</ele>
        <time>2015-10-17T17:31:56Z</time>
      </trkpt>
      <trkpt lat="45.69646" lon="2.94961">
        <ele>990</ele>
        <time>2015-10-17T17:33:56Z</time>
      </trkpt>
      <trkpt lat="45.69626" lon="2.94992">
        <ele>989</ele>
        <time>2015-10-17T17:35:56Z</time>
      </trkpt>
      <trkpt lat="45.69593" lon="2.95075">
        <ele>985</ele>
        <time>2015-10-17T17:37:56Z</time>
      </trkpt>
      <trkpt lat="45.69585" lon="2.95125">
        <ele>982</ele>
        <time>2015-10-17T17:39:56Z</time>
      </trkpt>
      <trkpt lat="45.6954" lon="2.95161">
        <ele>978</ele>
        <time>2015-10-17T17:41:56Z</time>
      </trkpt>
      <trkpt lat="45.6953" lon="2.95206">
        <ele>976</ele>
        <time>2015-10-17T17:43:56Z</time>
      </trkpt>
      <trkpt lat="45.6951" lon="2.95264">
        <ele>974</ele>
        <time>2015-10-17T17:45:56Z</time>
      </trkpt>
      <trkpt lat="45.69481" lon="2.95335">
        <ele>972</ele>
        <time>2015-10-17T17:47:56Z</time>
      </trkpt>
      <trkpt lat="45.69465" lon="2.95354">
        <ele>971</ele>
        <time>2015-10-17T17:49:56Z</time>
      </trkpt>
      <trkpt lat="45.69423" lon="2.95305">
        <ele>970</ele>
        <time>2015-10-17T17:51:56Z</time>
      </trkpt>
      <trkpt lat="45.69368" lon="2.95215">
        <ele>967</ele>
        <time>2015-10-17T17:53:56Z</time>
      </trkpt>
      <trkpt lat="45.69312" lon="2.95127">
        <ele>969</ele>
        <time>2015-10-17T17:55:56Z</time>
      </trkpt>
      <trkpt lat="45.69242" lon="2.95134">
        <ele>964</ele>
        <time>2015-10-17T17:57:56Z</time>
      </trkpt>
      <trkpt lat="45.6916" lon="2.95134">
        <ele>959</ele>
        <time>2015-10-17T17:59:56Z</time>
      </trkpt>
      <trkpt lat="45.69103" lon="2.95122">
        <ele>958</ele>
        <time>2015-10-17T18:01:56Z</time>
      </trkpt>
      <trkpt lat="45.69057" lon="2.95112">
        <ele>958</ele>
        <time>2015-10-17T18:03:56Z</time>
      </trkpt>
      <trkpt lat="45.69043" lon="2.95126">
        <ele>957</ele>
        <time>2015-10-17T18:05:56Z</time>
      </trkpt>
      <trkpt lat="45.69018" lon="2.95147">
        <ele>958</ele>
        <time>2015-10-17T18:07:56Z</time>
      </trkpt>
      <trkpt lat="45.68985" lon="2.95121">
        <ele>958</ele>
        <time>2015-10-17T18:09:56Z</time>
      </trkpt>
      <trkpt lat="45.68938" lon="2.95109">
        <ele>957</ele>
        <time>2015-10-17T18:11:56Z</time>
      </trkpt>
      <trkpt lat="45.68896" lon="2.95131">
        <ele>959</ele>
        <time>2015-10-17T18:13:56Z</time>
      </trkpt>
      <trkpt lat="45.68838" lon="2.95121">
        <ele>957</ele>
        <time>2015-10-17T18:15:56Z</time>
      </trkpt>
      <trkpt lat="45.68785" lon="2.95123">
        <ele>956</ele>
        <time>2015-10-17T18:17:56Z</time>
      </trkpt>
      <trkpt lat="45.68758" lon="2.9515">
        <ele>959</ele>
        <time>2015-10-17T18:19:56Z</time>
      </trkpt>
      <trkpt lat="45.68718" lon="2.95154">
        <ele>956</ele>
        <time>2015-10-17T18:21:56Z</time>
      </trkpt>
      <trkpt lat="45.68666" lon="2.95216">
        <ele>955</ele>
        <time>2015-10-17T18:23:56Z</time>
      </trkpt>
      <trkpt lat="45.68661" lon="2.95305">
        <ele>958</ele>
        <time>2015-10-17T18:25:56Z</time>
      </trkpt>
      <trkpt lat="45.68653" lon="2.9535">
        <ele>958</ele>
        <time>2015-10-17T18:27:56Z</time>
      </trkpt>
      <trkpt lat="45.68645" lon="2.95441">
        <ele>957</ele>
        <time>2015-10-17T18:29:56Z</time>
      </trkpt>
      <trkpt lat="45.68616" lon="2.95435">
        <ele>957</ele>
        <time>2015-10-17T18:31:56Z</time>
      </trkpt>
      <trkpt lat="45.68589" lon="2.95408">
        <ele>955</ele>
        <time>2015-10-17T18:33:56Z</time>
      </trkpt>
      <trkpt lat="45.68559" lon="2.95408">
        <ele>956</ele>
        <time>2015-10-17T18:35:56Z</time>
      </trkpt>
      <trkpt lat="45.68551" lon="2.95437">
        <ele>958</ele>
        <time>2015-10-17T18:37:56Z</time>
      </trkpt>
      <trkpt lat="45.68529" lon="2.95456">
        <ele>961</ele>
        <time>2015-10-17T18:39:56Z</time>
      </trkpt>
      <trkpt lat="45.68506" lon="2.95461">
        <ele>963</ele>
        <time>2015-10-17T18:41:56Z</time>
      </trkpt>
      <trkpt lat="45.68472" lon="2.95506">
        <ele>966</ele>
        <time>2015-10-17T18:43:56Z</time>
      </trkpt>
      <trkpt lat="45.68527" lon="2.95533">
        <ele>968</ele>
        <time>2015-10-17T18:45:56Z</time>
      </trkpt>
      <trkpt lat="45.68562" lon="2.95619">
        <ele>978</ele>
        <time>2015-10-17T18:47:56Z</time>
      </trkpt>
      <trkpt lat="45.68597" lon="2.95704">
        <ele>991</ele>
        <time>2015-10-17T18:49:56Z</time>
      </trkpt>
      <trkpt lat="45.68612" lon="2.9575">
        <ele>998</ele>
        <time>2015-10-17T18:51:56Z</time>
      </trkpt>
      <trkpt lat="45.68654" lon="2.95778">
        <ele>1000</ele>
        <time>2015-10-17T18:53:56Z</time>
      </trkpt>
      <trkpt lat="45.6868" lon="2.95826">
        <ele>1007</ele>
        <time>2015-10-17T18:55:56Z</time>
      </trkpt>
      <trkpt lat="45.6876" lon="2.95857">
        <ele>1000</ele>
        <time>2015-10-17T18:57:56Z</time>
      </trkpt>
      <trkpt lat="45.68777" lon="2.95895">
        <ele>1012</ele>
        <time>2015-10-17T18:59:56Z</time>
      </trkpt>
      <trkpt lat="45.68815" lon="2.95924">
        <ele>1008</ele>
        <time>2015-10-17T19:01:56Z</time>
      </trkpt>
      <trkpt lat="45.68835" lon="2.95976">
        <ele>1017</ele>
        <time>2015-10-17T19:03:56Z</time>
      </trkpt>
      <trkpt lat="45.6884" lon="2.96033">
        <ele>1025</ele>
        <time>2015-10-17T19:05:56Z</time>
      </trkpt>
      <trkpt lat="45.68829" lon="2.96112">
        <ele>1031</ele>
        <time>2015-10-17T19:07:56Z</time>
      </trkpt>
      <trkpt lat="45.68799" lon="2.96169">
        <ele>1029</ele>
        <time>2015-10-17T19:09:56Z</time>
      </trkpt>
      <trkpt lat="45.68805" lon="2.9626">
        <ele>1022</ele>
        <time>2015-10-17T19:11:56Z</time>
      </trkpt>
      <trkpt lat="45.68779" lon="2.96324">
        <ele>1027</ele>
        <time>2015-10-17T19:13:56Z</time>
      </trkpt>
      <trkpt lat="45.68745" lon="2.96403">
        <ele>1041</ele>
        <time>2015-10-17T19:15:56Z</time>
      </trkpt>
      <trkpt lat="45.68697" lon="2.9647">
        <ele>1041</ele>
        <time>2015-10-17T19:17:56Z</time>
      </trkpt>
      <trkpt lat="45.68652" lon="2.96517">
        <ele>1033</ele>
        <time>2015-10-17T19:19:56Z</time>
      </trkpt>
      <trkpt lat="45.686" lon="2.96534">
        <ele>1023</ele>
        <time>2015-10-17T19:21:56Z</time>
      </trkpt>
      <trkpt lat="45.68555" lon="2.96544">
        <ele>1014</ele>
        <time>2015-10-17T19:23:56Z</time>
      </trkpt>
      <trkpt lat="45.68522" lon="2.96503">
        <ele>1016</ele>
        <time>2015-10-17T19:25:56Z</time>
      </trkpt>
      <trkpt lat="45.6849" lon="2.96496">
        <ele>1010</ele>
        <time>2015-10-17T19:27:56Z</time>
      </trkpt>
      <trkpt lat="45.68452" lon="2.96475">
        <ele>1004</ele>
        <time>2015-10-17T19:29:56Z</time>
      </trkpt>
      <trkpt lat="45.68409" lon="2.96494">
        <ele>992</ele>
        <time>2015-10-17T19:31:56Z</time>
      </trkpt>
      <trkpt lat="45.68379" lon="2.96544">
        <ele>984</ele>
        <time>2015-10-17T19:33:56Z</time>
      </trkpt>
      <trkpt lat="45.68354" lon="2.96565">
        <ele>980</ele>
        <time>2015-10-17T19:35:56Z</time>
      </trkpt>
      <trkpt lat="45.68311" lon="2.96584">
        <ele>974</ele>
        <time>2015-10-17T19:37:56Z</time>
      </trkpt>
      <trkpt lat="45.68269" lon="2.96606">
        <ele>969</ele>
        <time>2015-10-17T19:39:56Z</time>
      </trkpt>
      <trkpt lat="45.68244" lon="2.96618">
        <ele>967</ele>
        <time>2015-10-17T19:41:56Z</time>
      </trkpt>
      <trkpt lat="45.68249" lon="2.96684">
        <ele>967</ele>
        <time>2015-10-17T19:43:56Z</time>
      </trkpt>
      <trkpt lat="45.68282" lon="2.96749">
        <ele>965</ele>
        <time>2015-10-17T19:45:56Z</time>
      </trkpt>
      <trkpt lat="45.68334" lon="2.96794">
        <ele>965</ele>
        <time>2015-10-17T19:47:56Z</time>
      </trkpt>
      <trkpt lat="45.68402" lon="2.96782">
        <ele>968</ele>
        <time>2015-10-17T19:49:56Z</time>
      </trkpt>
      <trkpt lat="45.68474" lon="2.96773">
        <ele>966</ele>
        <time>2015-10-17T19:51:56Z</time>
      </trkpt>
      <trkpt lat="45.68507" lon="2.96744">
        <ele>969</ele>
        <time>2015-10-17T19:53:56Z</time>
      </trkpt>
      <trkpt lat="45.68572" lon="2.96753">
        <ele>966</ele>
        <time>2015-10-17T19:55:56Z</time>
      </trkpt>
      <trkpt lat="45.68655" lon="2.96758">
        <ele>962</ele>
        <time>2015-10-17T19:57:56Z</time>
      </trkpt>
      <trkpt lat="45.6872" lon="2.96721">
        <ele>968</ele>
        <time>2015-10-17T19:59:56Z</time>
      </trkpt>
      <trkpt lat="45.68784" lon="2.9669">
        <ele>971</ele>
        <time>2015-10-17T20:01:56Z</time>
      </trkpt>
      <trkpt lat="45.68808" lon="2.96656">
        <ele>973</ele>
        <time>2015-10-17T20:03:56Z</time>
      </trkpt>
      <trkpt lat="45.68868" lon="2.96647">
        <ele>972</ele>
        <time>2015-10-17T20:05:56Z</time>
      </trkpt>
      <trkpt lat="45.68921" lon="2.96575">
        <ele>970</ele>
        <time>2015-10-17T20:07:56Z</time>
      </trkpt>
      <trkpt lat="45.68999" lon="2.96549">
        <ele>969</ele>
        <time>2015-10-17T20:09:56Z</time>
      </trkpt>
      <trkpt lat="45.69056" lon="2.96549">
        <ele>971</ele>
        <time>2015-10-17T20:11:56Z</time>
      </trkpt>
      <trkpt lat="45.69107" lon="2.96582">
        <ele>972</ele>
        <time>2015-10-17T20:13:56Z</time>
      </trkpt>
      <trkpt lat="45.69137" lon="2.96634">
        <ele>972</ele>
        <time>2015-10-17T20:15:56Z</time>
      </trkpt>
      <trkpt lat="45.69182" lon="2.96694">
        <ele>972</ele>
        <time>2015-10-17T20:17:56Z</time>
      </trkpt>
      <trkpt lat="45.69228" lon="2.96694">
        <ele>972</ele>
        <time>2015-10-17T20:19:56Z</time>
      </trkpt>
      <trkpt lat="45.69285" lon="2.96732">
        <ele>967</ele>
        <time>2015-10-17T20:21:56Z</time>
      </trkpt>
      <trkpt lat="45.69367" lon="2.9672">
        <ele>964</ele>
        <time>2015-10-17T20:23:56Z</time>
      </trkpt>
      <trkpt lat="45.69383" lon="2.96677">
        <ele>965</ele>
        <time>2015-10-17T20:25:56Z</time>
      </trkpt>
      <trkpt lat="45.69438" lon="2.96701">
        <ele>964</ele>
        <time>2015-10-17T20:27:56Z</time>
      </trkpt>
      <trkpt lat="45.695" lon="2.9672">
        <ele>965</ele>
        <time>2015-10-17T20:29:56Z</time>
      </trkpt>
      <trkpt lat="45.69545" lon="2.96782">
        <ele>970</ele>
        <time>2015-10-17T20:31:56Z</time>
      </trkpt>
      <trkpt lat="45.6954" lon="2.96823">
        <ele>972</ele>
        <time>2015-10-17T20:33:56Z</time>
      </trkpt>
      <trkpt lat="45.69516" lon="2.96854">
        <ele>972</ele>
        <time>2015-10-17T20:35:56Z</time>
      </trkpt>
      <trkpt lat="45.69498" lon="2.96913">
        <ele>979</ele>
        <time>2015-10-17T20:37:56Z</time>
      </trkpt>
      <trkpt lat="45.69513" lon="2.96961">
        <ele>983</ele>
        <time>2015-10-17T20:39:56Z</time>
      </trkpt>
      <trkpt lat="45.69583" lon="2.96936">
        <ele>987</ele>
        <time>2015-10-17T20:41:56Z</time>
      </trkpt>
      <trkpt lat="45.69663" lon="2.96914">
        <ele>986</ele>
        <time>2015-10-17T20:43:56Z</time>
      </trkpt>
      <trkpt lat="45.69743" lon="2.96907">
        <ele>981</ele>
        <time>2015-10-17T20:45:56Z</time>
      </trkpt>
      <trkpt lat="45.69821" lon="2.96905">
        <ele>978</ele>
        <time>2015-10-17T20:47:56Z</time>
      </trkpt>
      <trkpt lat="45.69864" lon="2.96938">
        <ele>978</ele>
        <time>2015-10-17T20:49:56Z</time>
      </trkpt>
      <trkpt lat="45.6993" lon="2.96973">
        <ele>979</ele>
        <time>2015-10-17T20:51:56Z</time>
      </trkpt>
      <trkpt lat="45.70058" lon="2.9699">
        <ele>983</ele>
        <time>2015-10-17T20:53:56Z</time>
      </trkpt>
      <trkpt lat="45.70091" lon="2.9694">
        <ele>984</ele>
        <time>2015-10-17T20:55:56Z</time>
      </trkpt>
      <trkpt lat="45.70112" lon="2.96873">
        <ele>983</ele>
        <time>2015-10-17T20:57:56Z</time>
      </trkpt>
      <trkpt lat="45.70146" lon="2.96763">
        <ele>985</ele>
        <time>2015-10-17T20:59:56Z</time>
      </trkpt>
    </trkseg>
  </trk>
</gpx>